Macksville, Kansas
Current Conditions -  °F | °C
As of 4:15 AM on Sunday 23 Nov 2014 (Local Time) from KPTT Reporting Station
Scattered Clouds Scattered Clouds  
Wind Chill: 45°   Ceiling: Unl
Heat Index: 48°   Visibility: 10mi
Dew Point: 46°   Wind: 8mph
Humidity: 93%   Direction: 170°S
Pressure: 29.42"   Gusts: NA
Location:  37.96°N, 98.97°W
Report Text: KPTT 231015Z AUTO 17007KT 10SM SCT008 09/08 A2942 RMK AO2
Loading
Personal Weather Stations






























Interactive Weather Map New forecast layout! Learn more

10-Day Weather Forecast

Advertisements
Track Severe Weather on mobile